Latest Weather Observations for Sydney Airport

IDN60801

Issued at 2:04 pm EDT Sunday 1 March 2015 (issued every 30 minutes, with the page automatically refreshed every 10 minutes)

About weather observations | Map of weather stations | Latest weather observations for NSW | Other Formats
Station Details ID: 066037 Name: SYDNEY AIRPORT AMO Lat: -33.95 Lon: 151.17 Height: 6.0 m
Data from the previous 72 hours. | See also: Recent months at Sydney Airport
Date/Time
EDT
Temp
°C
App
Temp
°C
Dew
Point
Rel
Hum
%
Delta-T
°C
Wind Press
QNH
hPa
Press
MSL
hPa
Rain
since 9 am
mm
Dir
 
Spd
km/h
Gust
km/h
Spd
kts
Gust
kts
01/01:30pm 36.8 35.5 15.7 28 13.4 NW 17 28 9 15 1004.0 1004.0 0.0
01/12:30pm 35.5 34.3 16.1 31 12.3 NW 17 26 9 14 1004.9 1004.9 0.0
01/12:00pm 34.2 33.2 15.5 32 11.7 NW 15 22 8 12 1005.4 1005.4 0.0
01/11:30am 33.3 32.2 16.4 36 10.7 NW 17 22 9 12 1005.6 1005.6 0.0
01/11:00am 31.5 30.1 16.6 40 9.4 N 19 26 10 14 1005.7 1005.7 0.0
01/10:00am 28.2 28.7 18.4 55 6.3 NW 13 17 7 9 1006.1 1006.1 0.0
01/09:30am 26.9 27.6 18.8 61 5.2 NW 13 20 7 11 1006.1 1006.1 0.0
01/09:00am 25.7 26.8 18.8 65 4.4 N 11 15 6 8 1006.0 1006.0 0.0
01/08:30am 24.3 25.6 19.3 73 3.2 NW 11 13 6 7 1006.1 1006.1 0.0
01/07:00am 21.6 22.9 19.2 86 1.5 WNW 11 15 6 8 1005.9 1005.9 0.0
01/06:30am 22.2 24.9 19.4 84 1.8 NNE 4 7 2 4 1005.5 1005.5 0.0
01/05:30am 22.2 24.3 19.4 84 1.8 NNE 7 7 4 4 1005.2 1005.2 0.0
01/05:00am 22.1 23.8 19.4 85 1.7 N 9 11 5 6 1005.2 1005.2 0.0
01/04:30am 22.4 23.7 19.4 83 1.9 NNE 11 13 6 7 1005.2 1005.2 0.0
01/04:00am 22.5 24.2 19.4 82 2.0 NE 9 11 5 6 1005.4 1005.4 0.0
01/03:30am 22.7 24.4 19.4 81 2.1 NE 9 11 5 6 1005.7 1005.7 0.0
01/03:00am 22.6 24.4 19.5 82 2.0 NNE 9 9 5 5 1006.1 1006.1 0.0
01/02:30am 23.2 24.6 19.5 80 2.4 NE 11 13 6 7 1006.3 1006.3 0.0
01/02:00am 23.1 24.8 19.3 79 2.4 NE 9 11 5 6 1006.8 1006.8 0.0
01/01:30am 23.4 25.2 19.5 79 2.5 NNE 9 9 5 5 1007.2 1007.2 0.0
01/01:00am 23.9 25.7 19.5 76 2.8 N 9 11 5 6 1007.6 1007.6 0.0
01/12:30am 23.0 24.8 19.6 81 2.2 WNW 9 11 5 6 1007.8 1007.8 0.0
01/12:00am 23.9 25.3 19.5 76 2.8 NNW 11 13 6 7 1007.8 1007.8 0.0
 
Date/Time
EDT
Temp
°C
App
Temp
°C
Dew
Point
Rel
Hum
%
Delta-T
°C
Wind Press
QNH
hPa
Press
MSL
hPa
Rain
since 9 am
mm
Dir
 
Spd
km/h
Gust
km/h
Spd
kts
Gust
kts
28/11:30pm 25.0 26.4 19.6 72 3.5 NNE 11 15 6 8 1008.0 1008.0 0.0
28/11:00pm 25.1 25.5 19.9 73 3.4 N 17 24 9 13 1008.2 1008.2 0.0
28/10:30pm 25.0 24.4 20.4 75 3.0 NNE 24 33 13 18 1008.4 1008.4 0.0
28/10:00pm 24.9 23.6 20.6 77 2.8 NNE 28 39 15 21 1008.5 1008.5 0.0
28/09:30pm 24.9 22.8 20.5 76 2.9 NNE 32 41 17 22 1008.3 1008.3 0.0
28/09:00pm 25.0 23.6 20.4 75 3.0 NE 28 37 15 20 1008.0 1008.0 0.0
28/08:30pm 24.9 23.2 20.6 77 2.8 NNE 30 35 16 19 1007.8 1007.8 0.0
28/08:00pm 25.0 23.4 20.7 77 2.8 NE 30 39 16 21 1007.6 1007.6 0.0
28/07:30pm 24.8 22.4 20.4 76 2.9 NE 33 41 18 22 1007.4 1007.4 0.0
28/07:00pm 26.1 23.6 20.1 69 3.9 NE 33 39 18 21 1007.4 1007.4 0.0
28/06:30pm 26.7 23.8 19.3 64 4.8 NE 33 41 18 22 1007.4 1007.4 0.0
28/05:30pm 27.1 23.7 18.9 61 5.3 NE 35 41 19 22 1007.3 1007.3 0.0
28/05:00pm 27.6 23.9 18.4 57 5.9 NE 35 41 19 22 1007.6 1007.6 0.0
28/04:30pm 28.2 24.3 17.8 53 6.6 NE 35 43 19 23 1007.5 1007.5 0.0
28/04:00pm 28.4 24.4 16.3 47 7.5 NE 32 39 17 21 1007.5 1007.5 0.0
28/03:30pm 27.2 24.1 16.6 52 6.6 NE 28 33 15 18 1007.9 1007.9 0.0
28/03:00pm 27.0 24.3 17.6 56 5.9 NE 28 33 15 18 1008.4 1008.4 0.0
28/02:30pm 27.3 24.5 17.3 54 6.3 NE 28 33 15 18 1008.7 1008.7 0.0
28/02:00pm 27.3 24.7 16.9 53 6.5 ENE 26 30 14 16 1008.9 1008.9 0.0
28/01:30pm 27.0 25.2 17.8 57 5.8 ENE 24 30 13 16 1009.4 1009.4 0.0
28/01:00pm 27.6 26.7 17.8 55 6.2 ENE 19 28 10 15 1009.5 1009.5 0.0
28/12:30pm 28.1 27.6 17.9 54 6.5 NNE 17 28 9 15 1010.1 1010.1 0.0
28/12:00pm 26.7 26.2 17.8 58 5.6 NE 17 20 9 11 1010.3 1010.3 0.0
28/11:30am 26.0 25.6 17.2 58 5.5 NE 15 19 8 10 1010.7 1010.7 0.0
28/11:00am 25.8 25.6 17.5 60 5.2 NE 15 19 8 10 1010.7 1010.7 0.0
28/10:30am 25.4 24.8 17.6 62 4.9 ENE 17 20 9 11 1011.1 1011.1 0.0
28/10:00am 25.9 25.9 16.3 55 5.9 NNE 11 15 6 8 1011.0 1011.0 0.0
28/09:30am 25.1 26.2 17.9 64 4.5 NNE 9 15 5 8 1010.9 1010.9 0.0
28/09:00am 23.9 25.3 18.7 72 3.3 NNE 9 11 5 6 1010.8 1010.8 0.0
28/08:30am 22.8 24.1 18.5 77 2.7 WNW 9 11 5 6 1010.9 1010.9 0.0
28/08:00am 22.1 23.6 18.8 81 2.1 NNE 9 13 5 7 1010.7 1010.7 0.0
28/07:30am 21.6 23.2 19.1 86 1.6 ENE 9 13 5 7 1010.3 1010.3 0.0
28/07:00am 21.2 22.9 18.5 84 1.7 NE 7 9 4 5 1010.2 1010.2 0.0
28/06:30am 21.3 23.0 18.6 84 1.7 N 7 7 4 4 1010.1 1010.1 0.0
28/06:00am 20.5 22.4 18.6 89 1.2 NNE 6 7 3 4 1009.8 1009.8 0.0
28/05:30am 20.5 21.9 18.6 89 1.2 NNE 9 9 5 5 1009.6 1009.6 0.0
28/05:00am 20.4 21.8 18.6 89 1.1 NE 9 9 5 5 1009.5 1009.5 0.0
28/04:30am 20.9 22.9 18.8 88 1.3 NNE 6 7 3 4 1009.4 1009.4 0.0
28/04:00am 21.1 23.2 19.0 88 1.3 NNW 6 6 3 3 1009.6 1009.6 0.0
28/03:30am 20.9 22.8 19.0 89 1.2 WNW 7 7 4 4 1009.8 1009.8 0.0
28/03:00am 21.9 24.1 19.1 84 1.8 NW 6 7 3 4 1009.8 1009.8 0.0
28/02:30am 22.1 24.0 18.9 82 2.0 NNW 7 9 4 5 1009.8 1009.8 0.0
28/02:00am 22.3 23.4 18.8 80 2.2 NNW 11 11 6 6 1009.9 1009.9 0.0
28/01:30am 22.7 23.3 18.7 78 2.5 NNW 13 15 7 8 1010.1 1010.1 0.0
28/01:00am 22.9 23.7 19.0 78 2.5 NNW 13 15 7 8 1010.5 1010.5 0.0
28/12:30am 23.5 23.8 18.8 75 3.0 NNW 15 17 8 9 1010.6 1010.6 0.0
28/12:00am 23.9 24.6 18.9 73 3.2 N 13 17 7 9 1011.0 1011.0 0.0
 
Date/Time
EDT
Temp
°C
App
Temp
°C
Dew
Point
Rel
Hum
%
Delta-T
°C
Wind Press
QNH
hPa
Press
MSL
hPa
Rain
since 9 am
mm
Dir
 
Spd
km/h
Gust
km/h
Spd
kts
Gust
kts
27/11:30pm 24.4 25.4 18.6 70 3.7 NNE 11 13 6 7 1011.1 1011.1 0.0
27/11:00pm 23.5 24.6 18.8 75 3.0 NNE 11 13 6 7 1011.0 1011.0 0.0
27/10:30pm 23.4 24.9 19.0 76 2.8 NE 9 13 5 7 1011.1 1011.1 0.0
27/10:00pm 23.4 24.2 19.0 76 2.8 NE 13 13 7 7 1011.1 1011.1 0.0
27/09:30pm 23.4 24.2 19.0 76 2.8 NE 13 17 7 9 1010.8 1010.8 0.0
27/09:00pm 23.9 23.9 19.0 74 3.1 NE 17 19 9 10 1010.4 1010.4 0.0
27/08:30pm 23.9 24.4 19.2 75 3.0 ENE 15 24 8 13 1010.2 1010.2 0.0
27/08:00pm 23.8 24.3 19.3 76 2.9 E 15 19 8 10 1009.8 1009.8 0.0
27/07:30pm 24.0 23.9 18.8 72 3.3 E 17 24 9 13 1009.3 1009.3 0.0
27/07:00pm 24.7 24.0 18.2 67 4.1 ENE 19 26 10 14 1009.0 1009.0 0.0
27/06:30pm 24.9 23.6 18.1 66 4.3 E 22 26 12 14 1008.8 1008.8 0.0
27/06:00pm 25.5 24.7 18.1 63 4.7 E 19 24 10 13 1008.7 1008.7 0.0
27/05:30pm 26.0 25.0 17.6 60 5.3 ESE 19 24 10 13 1008.8 1008.8 0.0
27/05:00pm 26.1 24.7 17.1 57 5.6 SE 20 26 11 14 1008.6 1008.6 0.0
27/04:30pm 26.5 25.3 17.6 58 5.6 SE 20 26 11 14 1008.8 1008.8 0.0
27/04:00pm 26.0 24.9 18.6 63 4.7 SE 22 26 12 14 1008.8 1008.8 0.0
27/03:30pm 26.2 25.7 17.8 60 5.3 SE 17 24 9 13 1009.4 1009.4 0.0
27/03:00pm 26.1 25.3 18.0 61 5.1 SSE 19 24 10 13 1009.6 1009.6 0.0
27/02:30pm 25.9 25.0 18.2 62 4.9 SE 20 26 11 14 1009.7 1009.7 0.0
27/02:00pm 26.0 24.9 17.4 59 5.4 SE 19 24 10 13 1009.8 1009.8 0.0
27/01:30pm 25.9 24.8 17.4 59 5.3 SE 19 24 10 13 1010.1 1010.1 0.0
27/01:00pm 24.8 24.3 18.7 69 3.9 SSE 19 22 10 12 1010.3 1010.3 0.0
27/12:30pm 24.1 23.4 18.2 69 3.7 SSE 19 24 10 13 1010.6 1010.6 0.0
27/12:00pm 25.2 24.3 18.1 64 4.5 SE 20 26 11 14 1010.8 1010.8 0.0
27/11:30am 25.3 24.0 16.7 59 5.3 SE 19 26 10 14 1011.2 1011.2 0.0
27/11:00am 24.4 23.3 17.7 66 4.2 SE 20 26 11 14 1011.3 1011.3 0.0
27/10:30am 25.3 24.7 18.4 65 4.4 SSE 19 26 10 14 1011.3 1011.3 0.0
27/10:00am 24.3 23.5 18.4 69 3.7 SSE 20 26 11 14 1011.2 1011.2 0.0
27/09:30am 23.6 22.1 18.5 73 3.2 SE 24 28 13 15 1011.0 1011.0 0.0
27/09:00am 23.3 23.4 19.1 77 2.7 SSE 17 26 9 14 1010.9 1010.9 0.4
27/08:30am 22.7 21.9 19.2 80 2.2 SSE 22 28 12 15 1010.8 1010.8 0.4
27/08:00am 22.5 22.2 19.5 83 1.9 SSE 20 28 11 15 1010.5 1010.5 0.4
27/07:30am 21.4 22.5 19.7 90 1.1 SSW 13 17 7 9 1010.0 1010.0 0.4
27/07:00am 22.0 22.6 20.3 90 1.1 S 17 19 9 10 1009.7 1009.7 0.2
27/06:30am 21.6 21.9 19.6 88 1.3 SSW 17 28 9 15 1009.3 1009.3 0.0
27/06:00am 21.6 21.3 19.6 88 1.3 SSW 20 28 11 15 1009.1 1009.1 0.0
27/05:30am 21.8 22.1 19.6 87 1.4 SSW 17 20 9 11 1009.0 1009.0 0.0
27/05:00am 21.5 21.9 19.8 90 1.1 SSW 17 20 9 11 1008.7 1008.7 0.0
27/04:30am 21.5 21.4 19.5 88 1.3 SSW 19 24 10 13 1008.7 1008.7 0.0
27/04:00am 21.4 20.7 19.5 89 1.2 SSW 22 26 12 14 1008.5 1008.5 0.0
27/03:30am 21.5 21.3 19.3 87 1.4 SSW 19 24 10 13 1008.4 1008.4 0.0
27/03:00am 21.3 20.8 19.2 88 1.3 SSW 20 26 11 14 1008.5 1008.5 0.0
27/02:30am 21.2 21.5 19.5 90 1.1 SSW 17 22 9 12 1008.6 1008.6 0.0
27/02:00am 21.4 21.3 19.5 89 1.2 SW 19 22 10 12 1008.7 1008.7 0.0
27/01:30am 21.4 21.3 19.5 89 1.2 SW 19 22 10 12 1009.0 1009.0 0.0
27/01:00am 21.5 22.9 20.4 93 0.7 SW 13 19 7 10 1009.2 1009.2 0.0
27/12:30am 21.8 23.4 20.7 93 0.7 SW 13 17 7 9 1009.2 1009.2 0.0
27/12:00am 22.1 23.7 20.7 92 0.9 SW 13 15 7 8 1009.2 1009.2 0.0
 
Date/Time
EDT
Temp
°C
App
Temp
°C
Dew
Point
Rel
Hum
%
Delta-T
°C
Wind Press
QNH
hPa
Press
MSL
hPa
Rain
since 9 am
mm
Dir
 
Spd
km/h
Gust
km/h
Spd
kts
Gust
kts
26/11:30pm 22.3 24.6 20.6 90 1.1 SSE 9 11 5 6 1009.0 1009.0 0.0
26/11:00pm 22.6 25.1 20.3 87 1.5 ENE 7 9 4 5 1009.0 1009.0 0.0
26/10:30pm 22.5 26.6 20.7 89 1.2 CALM 0 0 0 0 1009.2 1009.2 0.0
26/10:00pm 22.6 25.4 20.8 89 1.2 S 7 9 4 5 1009.8 1009.8 0.0
26/09:30pm 23.0 25.6 20.1 84 1.9 S 6 15 3 8 1009.9 1009.9 0.0
26/09:00pm 23.0 25.5 19.9 83 2.0 E 6 9 3 5 1009.6 1009.6 0.0
26/08:30pm 23.2 25.5 19.4 79 2.4 ENE 6 11 3 6 1008.9 1008.9 0.0
26/08:00pm 23.5 23.8 20.3 82 2.1 NNE 19 22 10 12 1007.3 1007.3 0.0
26/07:30pm 22.8 23.8 20.2 85 1.7 ESE 15 17 8 9 1007.1 1007.1 0.0
26/07:00pm 23.6 25.1 19.0 75 2.9 ESE 9 13 5 7 1007.4 1007.4 0.0
26/06:30pm 23.9 24.3 18.9 73 3.2 ENE 15 17 8 9 1006.7 1006.7 0.0
26/06:00pm 24.7 24.7 18.2 67 4.1 E 15 17 8 9 1006.4 1006.4 0.0
26/05:30pm 26.0 25.8 17.7 60 5.2 NE 15 19 8 10 1006.2 1006.2 0.0
26/05:00pm 25.2 25.0 17.5 62 4.8 NE 15 19 8 10 1006.3 1006.3 0.0
26/04:30pm 26.5 25.3 17.6 58 5.6 NE 20 24 11 13 1006.6 1006.6 0.0
26/04:00pm 26.1 25.9 17.5 59 5.4 ENE 15 24 8 13 1006.6 1006.6 0.0
26/03:30pm 27.1 26.6 17.8 56 5.9 ENE 17 26 9 14 1006.9 1006.9 0.0
26/03:00pm 26.0 25.3 18.3 62 4.9 ENE 19 24 10 13 1007.1 1007.1 0.0
26/02:30pm 25.4 24.9 17.9 63 4.7 ESE 17 26 9 14 1007.3 1007.3 0.0

Other Formats:

Comma delimited format used in spreadsheet applications
http://www.bom.gov.au/fwo/IDN60801/IDN60801.94767.axf

JavaScript Object Notation format (JSON) in row-major order
http://www.bom.gov.au/fwo/IDN60801/IDN60801.94767.json